createdAt,value
2022-11-01T00:02:11.332Z,63.92
2022-11-01T00:04:38.521Z,64.01
2022-11-01T00:07:06.379Z,64.00
2022-11-01T00:09:33.499Z,64.01
2022-11-01T00:12:00.621Z,64.26
2022-11-01T00:14:27.807Z,64.67
2022-11-01T00:16:55.245Z,64.57
2022-11-01T00:19:22.301Z,64.45
2022-11-01T00:21:49.414Z,64.23
2022-11-01T00:24:16.580Z,64.43
2022-11-01T00:26:43.842Z,64.45
2022-11-01T00:29:12.829Z,64.56
2022-11-01T00:31:40.111Z,64.68
2022-11-01T00:34:07.239Z,64.90
2022-11-01T00:36:35.780Z,64.68
2022-11-01T05:38:42.558Z,64.09
2022-11-01T05:41:09.819Z,64.18
2022-11-01T05:43:36.777Z,63.87
2022-11-01T05:46:06.134Z,63.87
2022-11-01T05:48:34.377Z,63.69
2022-11-01T05:51:01.527Z,63.52
2022-11-01T05:53:28.632Z,63.77
2022-11-01T05:55:59.872Z,63.83
2022-11-01T05:58:30.566Z,63.94
2022-11-01T06:01:06.811Z,63.65
2022-11-01T06:03:34.944Z,63.72
2022-11-01T06:06:02.526Z,63.78
2022-11-01T06:08:31.067Z,63.71
2022-11-01T06:11:03.725Z,63.96
2022-11-01T06:13:31.774Z,63.71
2022-11-01T06:16:05.658Z,63.48
2022-11-01T06:18:33.034Z,63.51
2022-11-01T06:21:00.170Z,63.60
2022-11-01T06:23:27.205Z,63.49
2022-11-01T06:26:05.203Z,63.65
2022-11-01T06:28:33.305Z,63.22
2022-11-01T06:33:33.091Z,62.75
2022-11-01T06:36:02.051Z,62.63
2022-11-01T06:38:29.185Z,62.44
2022-11-01T06:40:56.357Z,62.13
2022-11-01T06:43:23.383Z,61.84
2022-11-01T06:45:50.939Z,61.04
2022-11-01T06:48:18.021Z,60.53
2022-11-01T06:50:45.096Z,60.29
2022-11-01T06:53:12.115Z,60.59
2022-11-01T06:55:39.073Z,60.30
2022-11-01T06:58:06.450Z,60.14
2022-11-01T07:00:33.666Z,60.15
2022-11-01T07:03:04.354Z,59.98
2022-11-01T07:05:37.131Z,60.03
2022-11-01T07:08:13.180Z,60.03
2022-11-01T07:10:43.095Z,60.01
2022-11-01T07:13:12.924Z,59.83
2022-11-01T07:15:40.255Z,59.53
2022-11-01T07:18:08.582Z,59.38
2022-11-01T07:20:41.912Z,58.67
2022-11-01T07:23:16.939Z,58.59
2022-11-01T07:25:44.349Z,58.24
2022-11-01T07:28:11.546Z,57.81
2022-11-01T07:30:39.326Z,57.68
2022-11-01T07:33:07.076Z,57.17
2022-11-01T07:35:35.772Z,56.51
2022-11-01T07:38:06.405Z,56.25
2022-11-01T07:40:39.352Z,55.95
2022-11-01T07:43:07.250Z,55.59
2022-11-01T07:45:36.633Z,55.55
2022-11-01T07:48:10.209Z,55.66
2022-11-01T07:50:39.647Z,55.17
2022-11-01T07:53:12.134Z,54.85
2022-11-01T07:55:40.062Z,54.19
2022-11-01T07:58:08.423Z,53.87
2022-11-01T08:00:36.878Z,53.34
2022-11-01T08:03:12.923Z,52.56
2022-11-01T08:05:41.290Z,52.71
2022-11-01T08:08:09.461Z,52.38
2022-11-01T08:10:38.358Z,52.59
2022-11-01T08:13:27.021Z,52.29
2022-11-01T08:15:54.864Z,51.79
2022-11-01T08:18:24.333Z,51.80
2022-11-01T08:20:52.158Z,51.17
2022-11-01T08:23:19.708Z,50.88
2022-11-01T08:25:47.137Z,50.55
2022-11-01T08:28:18.526Z,50.97
2022-11-01T08:30:48.393Z,50.96
2022-11-01T08:33:15.491Z,50.17
2022-11-01T08:35:49.765Z,50.07
2022-11-01T08:38:17.521Z,50.25
2022-11-01T08:40:44.549Z,50.19
2022-11-01T08:43:11.644Z,50.37
2022-11-01T08:45:38.996Z,50.43
2022-11-01T08:48:06.297Z,50.31
2022-11-01T08:50:34.980Z,50.26
2022-11-01T08:53:12.164Z,49.64
2022-11-01T08:55:39.657Z,49.29
2022-11-01T08:58:08.233Z,49.45
2022-11-01T09:00:36.293Z,49.00
2022-11-01T09:03:04.227Z,48.56
2022-11-01T09:05:31.525Z,47.88
2022-11-01T09:08:02.607Z,47.40
2022-11-01T09:10:33.390Z,47.08
2022-11-01T09:13:01.748Z,47.41
2022-11-01T09:15:30.071Z,47.58
2022-11-01T09:17:57.180Z,46.89
2022-11-01T09:20:24.314Z,46.90
2022-11-01T09:22:52.632Z,46.83
2022-11-01T09:25:20.191Z,46.60
2022-11-01T09:27:47.236Z,46.56
2022-11-01T09:30:14.549Z,46.17
2022-11-01T09:32:41.629Z,46.72
2022-11-01T09:35:09.187Z,47.09
2022-11-01T09:37:36.228Z,47.10
2022-11-01T09:40:04.425Z,46.87
2022-11-01T09:42:39.878Z,47.01
2022-11-01T09:45:17.093Z,46.81
2022-11-01T09:47:48.823Z,46.51
2022-11-01T09:50:30.109Z,46.85
2022-11-01T09:52:57.795Z,47.01
2022-11-01T09:55:39.383Z,46.95
2022-11-01T09:58:41.160Z,46.93
2022-11-01T10:01:49.620Z,46.70
2022-11-01T10:04:34.839Z,47.37
2022-11-01T10:07:26.345Z,46.69
2022-11-01T10:10:19.437Z,46.39
2022-11-01T10:12:59.314Z,46.46
2022-11-01T10:15:59.705Z,46.21
2022-11-01T10:18:53.369Z,46.23
2022-11-01T10:21:25.818Z,46.27
2022-11-01T10:23:56.548Z,45.89
2022-11-01T10:26:31.149Z,46.38
2022-11-01T10:28:58.157Z,46.25
2022-11-01T10:31:27.772Z,46.12
2022-11-01T10:34:35.950Z,46.76
2022-11-01T10:37:43.829Z,46.21
2022-11-01T10:40:28.258Z,46.14
2022-11-01T10:42:55.430Z,46.39
2022-11-01T10:45:23.287Z,45.71
2022-11-01T10:47:58.433Z,46.00
2022-11-01T10:50:29.120Z,45.65
2022-11-01T10:53:00.315Z,45.80
2022-11-01T10:55:34.131Z,46.40
2022-11-01T10:58:14.948Z,46.68
2022-11-01T11:00:43.484Z,46.68
2022-11-01T11:03:33.868Z,46.38
2022-11-01T11:06:07.016Z,46.35
2022-11-01T11:08:34.879Z,46.16
2022-11-01T11:11:14.409Z,46.32
2022-11-01T11:13:47.960Z,45.82
2022-11-01T11:16:51.872Z,45.86
2022-11-01T11:19:33.724Z,45.05
2022-11-01T11:22:06.772Z,44.41
2022-11-01T11:24:43.850Z,44.51
2022-11-01T11:27:22.032Z,44.49
2022-11-01T11:30:05.261Z,43.71
2022-11-01T11:32:47.674Z,42.77
2022-11-01T11:35:14.620Z,40.43
2022-11-01T11:37:57.844Z,38.91
2022-11-01T11:40:42.703Z,39.08
2022-11-01T11:43:33.876Z,39.38
2022-11-01T11:46:09.835Z,39.54
2022-11-01T11:49:00.738Z,40.62
2022-11-01T11:51:33.815Z,41.20
2022-11-01T11:54:24.094Z,41.96
2022-11-01T11:57:14.520Z,43.72
2022-11-01T11:59:43.641Z,44.62
2022-11-01T12:02:26.582Z,45.00
2022-11-01T12:04:59.349Z,44.65
2022-11-01T12:07:29.431Z,43.97
2022-11-01T12:10:02.362Z,43.36
2022-11-01T12:12:33.551Z,44.00
2022-11-01T12:15:03.421Z,44.17
2022-11-01T12:17:46.138Z,44.43
2022-11-01T12:20:13.221Z,44.62
2022-11-01T12:22:49.776Z,44.79
2022-11-01T12:25:22.647Z,44.89
2022-11-01T12:28:02.936Z,44.38
2022-11-01T12:30:36.301Z,44.20
2022-11-01T12:33:17.710Z,43.94
2022-11-01T12:35:47.589Z,43.42
2022-11-01T12:38:38.628Z,43.97
2022-11-01T12:41:26.820Z,44.38
2022-11-01T12:44:34.598Z,44.42
2022-11-01T12:47:38.985Z,44.63
2022-11-01T12:50:37.361Z,44.49
2022-11-01T12:53:26.631Z,45.30
2022-11-01T12:55:54.073Z,45.60
2022-11-01T12:58:23.175Z,45.76
2022-11-01T13:00:53.303Z,45.77
2022-11-01T13:03:58.288Z,45.24
2022-11-01T13:06:40.260Z,45.30
2022-11-01T13:09:34.829Z,45.65
2022-11-01T13:12:26.046Z,45.51
2022-11-01T13:15:11.632Z,45.47
2022-11-01T13:18:35.094Z,45.32
2022-11-01T13:21:11.334Z,44.93
2022-11-01T13:23:49.546Z,45.12
2022-11-01T13:26:46.100Z,44.89
2022-11-01T13:29:34.848Z,45.25
2022-11-01T13:32:05.373Z,45.32
2022-11-01T13:34:48.043Z,45.54
2022-11-01T13:37:55.808Z,45.44
2022-11-01T13:41:03.551Z,45.11
2022-11-01T13:43:43.688Z,44.91
2022-11-01T13:46:31.098Z,45.21
2022-11-01T13:49:10.309Z,45.28
2022-11-01T13:51:51.297Z,45.19
2022-11-01T13:54:27.415Z,45.41
2022-11-01T13:57:09.675Z,45.74
2022-11-01T13:59:44.410Z,45.53
2022-11-01T14:02:23.948Z,46.19
2022-11-01T14:05:10.934Z,46.15
2022-11-01T14:08:04.150Z,46.36
2022-11-01T14:10:31.363Z,47.19
2022-11-01T14:13:07.447Z,47.53
2022-11-01T14:15:39.820Z,47.04
2022-11-01T14:18:11.968Z,47.25
2022-11-01T14:20:40.449Z,46.99
2022-11-01T14:23:27.732Z,47.01
2022-11-01T14:26:20.147Z,46.99
2022-11-01T14:28:50.709Z,47.07
2022-11-01T14:31:22.176Z,47.19
2022-11-01T14:33:50.205Z,46.81
2022-11-01T14:36:23.000Z,47.12
2022-11-01T14:39:02.751Z,47.16
2022-11-01T14:41:33.963Z,47.11
2022-11-01T14:44:15.161Z,47.10
2022-11-01T14:46:49.091Z,47.37
2022-11-01T14:49:33.553Z,47.06
2022-11-01T14:52:24.608Z,47.82
2022-11-01T14:55:10.183Z,47.91
2022-11-01T14:57:37.244Z,47.65
2022-11-01T15:00:31.638Z,47.87
2022-11-01T15:03:01.534Z,47.96
2022-11-01T15:05:29.184Z,48.01
2022-11-01T15:07:59.382Z,47.76
2022-11-01T15:10:27.848Z,47.64
2022-11-01T15:12:59.097Z,47.79
2022-11-01T15:15:53.564Z,47.93
2022-11-01T15:18:21.125Z,47.92
2022-11-01T15:20:56.059Z,47.81
2022-11-01T15:23:35.179Z,48.36
2022-11-01T15:26:09.701Z,48.73
2022-11-01T15:28:47.295Z,48.86
2022-11-01T15:31:14.380Z,49.04
2022-11-01T15:33:58.956Z,48.87
2022-11-01T15:36:39.851Z,49.15
2022-11-01T15:39:23.279Z,49.51
2022-11-01T15:41:52.144Z,49.64
2022-11-01T15:44:30.302Z,49.63
2022-11-01T15:47:02.715Z,49.67
2022-11-01T15:49:35.997Z,49.47
2022-11-01T15:52:19.998Z,49.55
2022-11-01T15:55:28.132Z,49.69
2022-11-01T15:58:11.950Z,49.85
2022-11-01T16:00:45.792Z,49.60
2022-11-01T16:03:28.742Z,49.92
2022-11-01T16:06:01.442Z,49.94
2022-11-01T16:08:42.210Z,50.05
2022-11-01T16:11:09.828Z,50.12
2022-11-01T16:13:37.611Z,50.36
2022-11-01T16:16:12.729Z,50.35
2022-11-01T16:18:41.763Z,50.41
2022-11-01T16:21:27.784Z,50.19
2022-11-01T16:24:15.428Z,50.56
2022-11-01T16:26:58.432Z,50.85
2022-11-01T16:29:49.279Z,52.03
2022-11-01T16:32:20.564Z,52.19
2022-11-01T16:34:47.756Z,52.83
2022-11-01T16:37:26.932Z,53.56
2022-11-01T16:39:54.749Z,53.86
2022-11-01T16:42:23.096Z,54.20
2022-11-01T16:45:00.448Z,54.39
2022-11-01T16:47:27.483Z,55.06
2022-11-01T16:49:55.183Z,55.49
2022-11-01T16:52:22.745Z,56.15
2022-11-01T16:54:53.499Z,56.13
2022-11-01T16:57:28.188Z,56.26
2022-11-01T16:59:56.278Z,56.60
2022-11-01T17:02:29.818Z,57.07
2022-11-01T17:05:23.719Z,57.44
2022-11-01T17:07:50.818Z,57.57
2022-11-01T17:10:22.453Z,57.54
2022-11-01T17:12:49.628Z,57.46
2022-11-01T17:15:17.403Z,57.79
2022-11-01T17:17:47.833Z,57.79
2022-11-01T17:20:22.887Z,57.90
2022-11-01T17:22:52.279Z,58.08
2022-11-01T17:25:27.013Z,58.22
2022-11-01T17:27:56.404Z,58.64
2022-11-01T17:30:23.634Z,58.80
2022-11-01T17:32:50.737Z,59.03
2022-11-01T17:35:20.374Z,59.18
2022-11-01T17:37:50.484Z,59.48
2022-11-01T17:40:22.079Z,59.50
2022-11-01T17:42:49.197Z,59.78
2022-11-01T17:45:16.502Z,60.35
2022-11-01T17:47:44.051Z,60.55
2022-11-01T17:50:14.957Z,60.58
2022-11-01T17:52:45.411Z,60.58
2022-11-01T17:55:13.825Z,60.72
2022-11-01T17:57:41.689Z,60.60
2022-11-01T18:00:10.826Z,60.81
2022-11-01T18:02:41.669Z,60.84
2022-11-01T18:05:09.418Z,60.96
2022-11-01T18:07:40.974Z,60.85
2022-11-01T18:10:43.800Z,61.01
2022-11-01T18:13:42.391Z,61.10
2022-11-01T18:16:43.696Z,61.45
2022-11-01T18:19:32.394Z,61.74
2022-11-01T18:22:35.873Z,61.82
2022-11-01T18:25:17.135Z,61.88
2022-11-01T18:27:44.235Z,61.98
2022-11-01T18:30:17.639Z,61.74
2022-11-01T18:33:10.674Z,61.43
2022-11-01T18:35:50.051Z,60.87
2022-11-01T18:38:46.784Z,60.83
2022-11-01T18:41:20.118Z,60.65
2022-11-01T18:43:47.292Z,60.72
2022-11-01T18:46:25.281Z,60.21
2022-11-01T18:49:01.097Z,59.74
2022-11-01T18:51:32.727Z,59.82
2022-11-01T18:54:28.255Z,59.84
2022-11-01T18:56:58.457Z,60.71
2022-11-01T18:59:29.746Z,61.24
2022-11-01T19:02:21.458Z,61.13
2022-11-01T19:04:52.281Z,61.47
2022-11-01T19:07:22.974Z,61.83
2022-11-01T19:09:57.742Z,61.83
2022-11-01T19:12:55.665Z,62.05
2022-11-01T19:15:28.212Z,61.10
2022-11-01T19:18:00.152Z,60.81
2022-11-01T19:20:32.261Z,60.83
2022-11-01T19:23:10.407Z,61.19
2022-11-01T19:25:38.175Z,61.36
2022-11-01T19:28:28.361Z,61.54
2022-11-01T19:30:59.665Z,61.86
2022-11-01T19:33:37.263Z,61.85
2022-11-01T19:36:14.491Z,62.58
2022-11-01T19:38:45.301Z,62.71
2022-11-01T19:41:18.476Z,62.76
2022-11-01T19:43:45.656Z,62.86
2022-11-01T19:46:19.258Z,62.84
2022-11-01T19:48:46.656Z,63.31
2022-11-01T19:51:24.162Z,63.12
2022-11-01T19:53:53.401Z,63.81
2022-11-01T19:56:23.259Z,63.11
2022-11-01T19:59:03.668Z,63.17
2022-11-01T20:01:43.054Z,63.07
2022-11-01T20:04:28.016Z,63.10
2022-11-01T20:06:59.609Z,62.82
2022-11-01T20:09:31.582Z,63.08
2022-11-01T20:11:58.735Z,62.91
2022-11-01T20:14:25.890Z,63.20
2022-11-01T20:16:52.898Z,63.22
2022-11-01T20:19:22.947Z,63.44
2022-11-01T20:21:50.116Z,63.16
2022-11-01T20:24:17.245Z,63.47
2022-11-01T20:26:44.383Z,64.24
2022-11-01T20:29:12.599Z,64.63
2022-11-01T20:31:39.812Z,64.92
2022-11-01T20:34:09.225Z,65.32
2022-11-01T20:36:36.870Z,65.34
2022-11-01T20:39:04.265Z,65.26
2022-11-01T20:41:31.934Z,64.99
2022-11-01T20:43:59.072Z,64.61
2022-11-01T20:46:26.120Z,64.52
2022-11-01T20:48:53.529Z,64.71
2022-11-01T20:51:20.655Z,64.76
2022-11-01T20:53:47.723Z,64.42
2022-11-01T20:56:14.816Z,63.90
2022-11-01T20:58:41.816Z,63.07
2022-11-01T21:01:27.481Z,62.24
2022-11-01T21:03:55.294Z,62.20
2022-11-01T21:06:26.701Z,62.18
2022-11-01T21:08:53.957Z,61.92
2022-11-01T21:11:46.110Z,61.14
2022-11-01T21:14:19.721Z,59.45
2022-11-01T21:16:50.466Z,58.33
2022-11-01T21:19:23.732Z,57.58
2022-11-01T21:21:58.996Z,57.01
2022-11-01T21:24:36.203Z,56.76
2022-11-01T21:27:12.339Z,57.83
2022-11-01T21:29:46.559Z,58.78
2022-11-01T21:32:34.799Z,59.87
2022-11-01T21:35:20.531Z,60.87
2022-11-01T21:37:54.858Z,61.80
2022-11-01T21:40:28.045Z,62.29
2022-11-01T21:42:56.651Z,62.70
2022-11-01T21:45:31.159Z,63.02
2022-11-01T21:48:15.659Z,63.42
2022-11-01T21:50:42.822Z,63.46
2022-11-01T21:53:09.924Z,63.42
2022-11-01T21:55:36.966Z,63.49
2022-11-01T21:58:03.961Z,63.49
2022-11-01T22:00:30.986Z,63.45
2022-11-01T22:02:57.934Z,62.03
2022-11-01T22:05:24.955Z,60.56
2022-11-01T22:07:52.049Z,59.45
2022-11-01T22:10:19.091Z,58.55
2022-11-01T22:12:46.046Z,57.97
2022-11-01T22:15:14.214Z,57.59
2022-11-01T22:17:41.224Z,57.34
2022-11-01T22:20:08.926Z,56.99
2022-11-01T22:22:35.900Z,56.73
2022-11-01T22:25:02.906Z,56.60
2022-11-01T22:27:29.888Z,56.66
2022-11-01T22:29:56.845Z,56.49
2022-11-01T22:32:23.866Z,56.32
2022-11-01T22:34:51.773Z,56.35
2022-11-01T22:37:18.815Z,56.38
2022-11-01T22:39:52.018Z,56.25
2022-11-01T22:42:20.181Z,56.11
2022-11-01T22:44:48.783Z,56.00
2022-11-01T22:47:27.327Z,55.96
2022-11-01T22:49:57.627Z,56.13
2022-11-01T22:52:44.305Z,55.99
2022-11-01T22:55:11.349Z,56.03
2022-11-01T22:57:57.366Z,56.10
2022-11-01T23:00:37.074Z,56.16
2022-11-01T23:03:32.149Z,56.07
2022-11-01T23:06:05.901Z,56.20
2022-11-01T23:08:34.469Z,56.18
2022-11-01T23:11:03.370Z,56.50
2022-11-01T23:13:51.289Z,56.60
2022-11-01T23:16:39.118Z,56.67
2022-11-01T23:19:13.515Z,56.96
2022-11-01T23:21:40.715Z,57.53
2022-11-01T23:24:08.355Z,57.24
2022-11-01T23:26:35.397Z,57.79
2022-11-01T23:29:02.932Z,58.55
2022-11-01T23:31:30.762Z,59.31
2022-11-01T23:33:57.815Z,60.28
2022-11-01T23:36:30.352Z,60.38
2022-11-01T23:39:02.577Z,60.00
2022-11-01T23:41:48.361Z,59.92
2022-11-01T23:44:31.230Z,60.65
2022-11-01T23:47:47.180Z,61.28
2022-11-01T23:50:24.813Z,61.84
2022-11-01T23:53:02.221Z,62.15
2022-11-01T23:55:32.263Z,62.40
2022-11-01T23:58:05.977Z,62.41
